Sonic Adventure (DX): Overall Rankings

Records: Times | Rings | Scores | Races | Bosses | Freestyle
Leaders: Times | Rings | Scores | Races | Bosses | Freestyle | Overall
Rank Player Percent Points Date
1 Sonicspeedruner 97.9% 370 04-29-21
2 Gamepro011 97.6% 424 04-29-21
3 DarkPolarNight 96.3% 672 04-29-21
4 Jawzun 92.7% 1320 04-29-21
5 Dashjump 91.1% 1606 04-29-21
6 Avento128bits 89.2% 1961 04-29-21
7 DarkspinesSonic 89.1% 1970 04-29-21
8 ike6252 88.9% 2008 04-29-21
9 F-Man 87.0% 2347 04-29-21
10 Coolfansonic 86.9% 2374 04-29-21
11 TheRealShadnic 84.6% 2791 04-29-21
12 HyperSonic7701 84.2% 2870 04-29-21
13 Nim 83.1% 3064 04-29-21
14 yoshifan 82.1% 3254 04-29-21
15 frankoredstrato 81.6% 3340 04-29-21
16 francisco 80.6% 3510 04-29-21
17 Marth 80.3% 3568 04-29-21
18 InferSaime 79.2% 3780 04-29-21
19 PfoSonic 78.6% 3877 04-29-21
20 Paragod 78.3% 3945 04-29-21
21 THC98 77.4% 4103 04-29-21
22 Stefan 75.0% 4546 04-29-21
23 Dekuboy 73.8% 4751 04-29-21
24 RPGnutter 72.9% 4914 04-29-21
25 bertin 72.7% 4952 04-29-21
26 sonicam 70.7% 5317 04-29-21
27 drminus 69.2% 5594 04-29-21
28 chaos shadow 68.7% 5684 04-29-21
29 chainchump 65.4% 6291 04-29-21
30 Combo 64.7% 6402 04-29-21
31 SkyLights 63.5% 6621 04-29-21
32 xXMegaManXx 62.0% 6902 04-29-21
33 Diamond 61.6% 6968 04-29-21
34 GerbilSoft 59.5% 7356 04-29-21
35 Auriman1 59.5% 7358 04-29-21
36 OmegaDJ 59.4% 7375 04-29-21
37 magnum12 58.7% 7510 04-29-21
38 Thorn 56.4% 7918 04-29-21
39 P1 Pause 56.2% 7965 04-29-21
40 mike89 55.0% 8177 04-29-21
41 Dave Cramer 53.2% 8499 04-29-21
42 Groudon199 53.0% 8534 04-29-21
43 Parax 52.6% 8613 04-29-21
44 SPVLABS 52.0% 8712 04-29-21
45 Shadow Jacky 52.0% 8718 04-29-21
46 CoEmpathy 49.2% 9231 04-29-21
47 Zurggriff 48.6% 9345 04-29-21
48 Niczur 47.1% 9614 04-29-21
49 Psymar 47.0% 9631 04-29-21
50 Arch 46.2% 9783 04-29-21
51 Chao_Fan 45.3% 9934 04-29-21
52 mauserman 44.7% 10048 04-29-21
53 Quartz 44.1% 10158 04-29-21
54 teamblackarms 43.5% 10267 04-29-21
55 Psyknux 42.8% 10395 04-29-21
56 James_Bertolli 42.3% 10489 04-29-21
57 Cyan Ryan 42.2% 10493 04-29-21
58 NintenDan 41.9% 10555 04-29-21
59 Turbos 41.3% 10667 04-29-21
60 Webber3000 41.2% 10675 04-29-21
61 Ring Rush 41.1% 10702 04-29-21
62 Cream147 40.9% 10730 04-29-21
62 Fr3nZy 40.9% 10730 04-29-21
64 Siavash Tazari 40.7% 10773 04-29-21
64 videogamemaster777 40.7% 10773 04-29-21
66 buddychaos0415 40.1% 10879 04-29-21
67 SadisticMystic 39.6% 10977 04-29-21
68 ethmar 39.2% 11053 04-29-21
69 eggFL 38.7% 11144 04-29-21
70 Calfd 38.0% 11269 04-29-21
71 SB737 37.1% 11431 04-29-21
72 supersonic465 36.7% 11503 04-29-21
73 supersonicfan 36.0% 11622 04-29-21
74 FuzZerd 34.8% 11841 04-29-21
75 Aitamen 34.4% 11915 04-29-21
76 BigAL49 34.1% 11983 04-29-21
77 elecmouse101 34.0% 11997 04-29-21
78 danieldude 34.0% 12002 04-29-21
79 Austinf 33.3% 12128 04-29-21
80 metanightmare22 32.8% 12204 04-29-21
81 dabestgamer 32.5% 12269 04-29-21
82 MiStEr_ShAoLiN 32.2% 12318 04-29-21
83 Mastakirby 31.5% 12450 04-29-21
84 Andrea Ritsu 31.5% 12451 04-29-21
85 itsPersonnal 31.2% 12502 04-29-21
86 Cybrax 30.4% 12649 04-29-21
87 JamminX42 30.4% 12653 04-29-21
88 SilvertheAlmighty 30.3% 12666 04-29-21
89 WeegeeZV 30.2% 12679 04-29-21
90 VMU Player Banned 28.4% 13014 04-29-21
91 Staf 27.9% 13096 04-29-21
92 Omega Rafael Santos 27.8% 13114 04-29-21
93 The T 27.5% 13179 04-29-21
94 EngiNerd 27.3% 13212 04-29-21
95 lordmetalsonic 26.9% 13286 04-29-21
96 Hipertails12 26.5% 13357 04-29-21
97 welldooder64 26.3% 13402 04-29-21
98 GreatStar 26.0% 13439 04-29-21
99 The Great Lord Mick 25.9% 13467 04-29-21
100 Sondow 25.7% 13497 04-29-21
101 LinksDarkArrows 25.6% 13515 04-29-21
102 Skylace 24.6% 13696 04-29-21
103 a_moustache 23.8% 13852 04-29-21
104 Rolken 23.2% 13954 04-29-21
105 Xia 21.5% 14264 04-29-21
106 Spinballwizard 21.5% 14265 04-29-21
107 Kogen Player Banned 21.5% 14268 04-29-21
108 f0rever_zer0 21.1% 14336 04-29-21
109 Twilisailor 21.1% 14346 04-29-21
110 Don 21.0% 14362 04-29-21
111 Cutiefox 20.8% 14385 04-29-21
112 Game_Complete 20.8% 14391 04-29-21
113 Miles9999 20.8% 14392 04-29-21
114 iden1 20.7% 14413 04-29-21
115 andres430 20.2% 14497 04-29-21
116 Cruizer 20.0% 14548 04-29-21
117 iSonicKid2K 19.9% 14563 04-29-21
118 Pokemonmaster888 19.8% 14572 04-29-21
119 SADXTryHard 19.6% 14607 04-29-21
120 GarnetPrincess 19.2% 14693 04-29-21
121 N 19.0% 14722 04-29-21
122 AxlThunder 18.7% 14769 04-29-21
123 knuckles_sonic8 18.3% 14843 04-29-21
124 Team_Yoshi 17.8% 14933 04-29-21
125 KinkyCadence 17.8% 14936 04-29-21
126 The Knuckles Chao 17.8% 14944 04-29-21
127 Termon 17.5% 14989 04-29-21
128 LittleBigness 17.4% 15016 04-29-21
129 FoxBoy 17.3% 15031 04-29-21
130 SonicWinDX 17.3% 15033 04-29-21
131 Drakodan 16.5% 15172 04-29-21
132 Sonic Singularity 15.5% 15356 04-29-21
133 paulie9990 14.8% 15486 04-29-21
134 SilverSonic 14.2% 15589 04-29-21
135 MPit08 14.1% 15605 04-29-21
136 sonicd5 14.1% 15617 04-29-21
137 Mo Player Banned 13.8% 15670 04-29-21
138 koinu93 13.7% 15693 04-29-21
139 Cod4Scopes 13.3% 15762 04-29-21
140 HyperSonic64 13.2% 15777 04-29-21
141 Jerzia 13.1% 15796 04-29-21
142 Modest 13.1% 15798 04-29-21
143 booo95 13.1% 15802 04-29-21
144 Hunters13 13.0% 15813 04-29-21
145 Chawkk 12.9% 15839 04-29-21
146 SuperSonic101 12.7% 15866 04-29-21
147 Maxinfamily 12.6% 15879 04-29-21
148 R3FR4G 12.5% 15894 04-29-21
149 PsyBorg 12.3% 15932 04-29-21
150 LilZero 12.3% 15939 04-29-21
151 Kanimayo_Jp 12.3% 15945 04-29-21
152 Flying Fox 12.2% 15960 04-29-21
153 BrokenArthritis 12.1% 15979 04-29-21
154 Therio 11.7% 16047 04-29-21
155 sonicspeed 11.5% 16078 04-29-21
156 SonicAD 11.4% 16100 04-29-21
157 douglas 11.4% 16110 04-29-21
158 Matt_TY 11.1% 16150 04-29-21
159 thewaytodawnnn 11.1% 16158 04-29-21
160 ModifiedMonkee 11.0% 16176 04-29-21
161 Cooljay 10.5% 16259 04-29-21
162 SuperBlitzCraig 10.4% 16279 04-29-21
163 joecoolgames 10.4% 16287 04-29-21
164 SeaWolf 10.4% 16291 04-29-21
165 Zethor 10.2% 16319 04-29-21
166 videogamer1014 10.2% 16329 04-29-21
167 AC-Tygo 9.9% 16367 04-29-21
168 welshmoose05 9.9% 16382 04-29-21
169 OddCook 9.7% 16415 04-29-21
170 crazy1993 9.5% 16440 04-29-21
171 TFEC Headshot 9.5% 16447 04-29-21
172 Mcshuggets 9.4% 16470 04-29-21
173 Mariobutch 9.3% 16482 04-29-21
174 niscool 9.1% 16528 04-29-21
175 Irregular Zero 9.0% 16533 04-29-21
176 nuckrieg 8.9% 16551 04-29-21
177 Shadowthegreat 8.8% 16580 04-29-21
178 superjupi 8.8% 16583 04-29-21
179 SirTobbii 8.7% 16599 04-29-21
180 sonamyfan666 8.5% 16636 04-29-21
181 Powerjohn25 8.4% 16645 04-29-21
182 iarebored 8.4% 16647 04-29-21
183 SaviourDC 8.3% 16663 04-29-21
184 SonicKnuckles 8.3% 16665 04-29-21
185 Badlex727 8.2% 16678 04-29-21
186 Werey 8.1% 16706 04-29-21
187 adf 8.0% 16723 04-29-21
188 Megaman EXE565 7.7% 16774 04-29-21
189 ArcticDragon 7.5% 16807 04-29-21
190 Platformer 7.3% 16841 04-29-21
191 timpkmn89 7.3% 16854 04-29-21
192 Swift Hobo 7.2% 16874 04-29-21
193 FocusSight64 7.1% 16881 04-29-21
194 wheatrich 7.0% 16898 04-29-21
195 Vicklaw 7.0% 16899 04-29-21
196 Rickyman48 6.9% 16927 04-29-21
197 KitsuneYamaro 6.8% 16939 04-29-21
198 Sm4sh 6.7% 16955 04-29-21
199 Triseena 6.5% 16987 04-29-21
200 Destroyer121121 6.3% 17024 04-29-21
201 Starlight Sable 6.3% 17028 04-29-21
202 CyberShadow 6.3% 17029 04-29-21
203 slade23 6.3% 17035 04-29-21
204 dShadow 6.2% 17044 04-29-21
205 IsisDazs 6.1% 17061 04-29-21
206 BlankTH 5.9% 17100 04-29-21
207 Monkeh 5.8% 17125 04-29-21
208 SonicU260 5.6% 17150 04-29-21
209 Richied 5.5% 17172 04-29-21
210 DaDude 5.5% 17174 04-29-21
211 Swinkly 5.5% 17178 04-29-21
212 Crispian 5.5% 17180 04-29-21
213 Zip 5.4% 17199 04-29-21
214 VeritasDL 5.1% 17246 04-29-21
215 tal39h 5.0% 17262 04-29-21
216 ALundstrom10 5.0% 17272 04-29-21
217 Kirbymon30 4.9% 17282 04-29-21
218 soniccoloursunleashed 4.8% 17308 04-29-21
219 Drflash55 4.7% 17318 04-29-21
220 Bass 4.7% 17330 04-29-21
221 Yish 4.5% 17349 04-29-21
222 neaolas 4.5% 17351 04-29-21
222 zapp 4.5% 17351 04-29-21
224 UninspiredUsername 4.4% 17367 04-29-21
225 Sonicsuperstar1 4.4% 17369 04-29-21
226 superiorsonic 4.4% 17373 04-29-21
227 gamefreak1292 4.4% 17382 04-29-21
228 Sora_yx 4.2% 17411 04-29-21
229 Chaos_Overlord 4.0% 17449 04-29-21
230 TakaRikka 3.9% 17466 04-29-21
231 Valfore 3.9% 17473 04-29-21
232 Dage4Aquatic 3.8% 17487 04-29-21
233 ShinigamiMachine 3.7% 17500 04-29-21
234 ArthurVGCP 3.7% 17512 04-29-21
235 Regano1000 3.6% 17520 04-29-21
236 MK 3.5% 17535 04-29-21
237 Ace747 3.5% 17547 04-29-21
238 Jua Rever 3.3% 17574 04-29-21
239 HHNNBBHHN 3.1% 17620 04-29-21
239 Illidan 3.1% 17620 04-29-21
241 Venick409 3.1% 17621 04-29-21
242 Brian_pso 3.0% 17625 04-29-21
243 nman36 3.0% 17629 04-29-21
243 Sithwarrior26 3.0% 17629 04-29-21
245 Egor305 2.8% 17658 04-29-21
246 TheChaosEmeraIds 2.8% 17659 04-29-21
247 ingx24 2.8% 17661 04-29-21
248 dekki1234 2.8% 17670 04-29-21
249 SkyBon 2.8% 17671 04-29-21
250 Nickson98 2.8% 17672 04-29-21
251 FSSRandomvids 2.7% 17678 04-29-21
252 Fozer 2.7% 17691 04-29-21
253 Colomb_30 2.6% 17700 04-29-21
253 sonic29887 2.6% 17700 04-29-21
255 TheUltraBlur 2.6% 17706 04-29-21
256 Aiko 2.6% 17707 04-29-21
257 1stKirbyever 2.5% 17715 04-29-21
258 TimTH 2.4% 17732 04-29-21
259 Th4tN1nj4Turtl3 2.3% 17760 04-29-21
260 Cort_pso 2.2% 17768 04-29-21
261 ieatatsonic 2.2% 17773 04-29-21
262 Doom-9 2.2% 17775 04-29-21
263 Mariosonic15 2.2% 17784 04-29-21
264 MStitomix 2.1% 17798 04-29-21
265 HermitHelmet 2.1% 17803 04-29-21
266 arcfx1985 2.0% 17806 04-29-21
267 SuperSonic71087 2.0% 17818 04-29-21
268 Artie 2.0% 17821 04-29-21
269 Got4n 1.9% 17822 04-29-21
270 Jose_15 1.9% 17831 04-29-21
270 Questionguy555 1.9% 17831 04-29-21
272 djmat 1.8% 17847 04-29-21
273 SuperSonicfan9595 1.8% 17852 04-29-21
274 sonicandamy 1.7% 17871 04-29-21
275 LancexExWx 1.6% 17876 04-29-21
276 Paixii 1.6% 17878 04-29-21
277 son1cgu1tar 1.6% 17883 04-29-21
278 Heroes_Hater 1.6% 17894 04-29-21
279 BallzeH 1.5% 17898 04-29-21
280 Jamixesa 1.5% 17903 04-29-21
281 Mankster101 1.5% 17904 04-29-21
282 BecauseWarAnvil 1.5% 17909 04-29-21
283 Xandre69 1.4% 17913 04-29-21
284 Crydio 1.4% 17921 04-29-21
284 Shanekilz 1.4% 17921 04-29-21
286 SpiritDragon1995 1.4% 17924 04-29-21
287 MarewBFN 1.3% 17937 04-29-21
288 stanski 1.3% 17941 04-29-21
289 Sonique Hedgehog 1.3% 17944 04-29-21
290 Blue Infamy 1.2% 17958 04-29-21
291 p0ker 1.2% 17959 04-29-21
292 ErrortheCucco 1.1% 17969 04-29-21
293 Arthas 1.1% 17972 04-29-21
293 Rikum22 1.1% 17972 04-29-21
295 sonic1001 1.1% 17980 04-29-21
296 AJSIV 1.1% 17983 04-29-21
297 syco1098 1.0% 17986 04-29-21
298 IDGeek121 1.0% 17988 04-29-21
299 Sonic the Hedgehod16 1.0% 17989 04-29-21
300 WingedInsignia 1.0% 17990 04-29-21
301 ASINISTERTACO 1.0% 17996 04-29-21
302 sonicfan9 1.0% 18003 04-29-21
303 BlackArmsShadow 0.9% 18013 04-29-21
303 themachoman202 0.9% 18013 04-29-21
305 shadowblast63 Player Banned 0.9% 18021 04-29-21
306 Fivavoa 0.8% 18022 04-29-21
307 Mr. Jones 0.8% 18024 04-29-21
308 Ben1502 0.8% 18025 04-29-21
308 darkstarblaze 0.8% 18025 04-29-21
308 MastaToken 0.8% 18025 04-29-21
311 Greham Adelphis 0.8% 18026 04-29-21
311 TommyeAsY 0.8% 18026 04-29-21
313 FlandreScarlet9999vr 0.8% 18033 04-29-21
313 ptorflaxendrosis 0.8% 18033 04-29-21
315 Gvozdevik 0.8% 18035 04-29-21
316 Zeldocto 0.8% 18037 04-29-21
317 Knuckles 0.8% 18039 04-29-21
318 BeeAwwb 0.7% 18042 04-29-21
319 KaM Mark MaK 0.7% 18045 04-29-21
320 ShadouZaHejjihoggu 0.7% 18048 04-29-21
321 Sonic The Star 0.7% 18057 04-29-21
322 darkersupershadic 0.6% 18058 04-29-21
323 Sogeking 0.6% 18060 04-29-21
324 Sonic62 0.6% 18062 04-29-21
325 Sarger001 0.6% 18064 04-29-21
326 Grady219 0.6% 18066 04-29-21
326 SonicK100 0.6% 18066 04-29-21
328 dragondragon18 0.6% 18067 04-29-21
329 Shadygamerfreak 0.6% 18069 04-29-21
330 Jawaah 0.6% 18071 04-29-21
331 Antek 0.5% 18076 04-29-21
332 SpinDashMaster 0.5% 18077 04-29-21
333 Klaus 0.5% 18078 04-29-21
333 SilverK 0.5% 18078 04-29-21
335 BioShadow 0.5% 18082 04-29-21
336 Videogamer123 0.5% 18091 04-29-21
337 IcKY 0.5% 18094 04-29-21
338 oTaiIilLsS 0.4% 18101 04-29-21
339 isaihtb11 0.4% 18102 04-29-21
340 OhNoes! 0.4% 18106 04-29-21
341 Mad Andy 0.4% 18108 04-29-21
341 zaktu40 0.4% 18108 04-29-21
343 S-MS32X-S 0.4% 18109 04-29-21
344 gaara1234 0.4% 18111 04-29-21
345 gamed00d 0.3% 18116 04-29-21
346 Mister_Slick 0.3% 18122 04-29-21
347 Sonic06Fan 0.3% 18125 04-29-21
348 Rush Hero 0.3% 18127 04-29-21
349 ChaosNexuss 0.3% 18128 04-29-21
350 SonicMega167 0.2% 18133 04-29-21
351 Iwannabelink 0.2% 18137 04-29-21
351 sonknuck23 0.2% 18137 04-29-21
353 DanielTheFalcon 0.2% 18146 04-29-21
353 gamer1245 0.2% 18146 04-29-21
355 Burningskull123 0.1% 18152 04-29-21
356 Sonicontherun 0.1% 18164 04-29-21
357 Lil_Dude 0.1% 18166 04-29-21
358 antiwwe 0.0% 18169 04-29-21
359 Genuine Hedgehog 0.0% 18173 04-29-21
360 Cbwade15 0.0% 18174 04-29-21
361 Tyrouble 0.0% 18178 04-29-21
362 MakoHNM 0.0% 18185 04-29-21
362 MegabombBlade 0.0% 18185 04-29-21
362 neji_hyuuga 0.0% 18185 04-29-21
362 Over 0.0% 18185 04-29-21
362 sdj6707 Player Banned 0.0% 18185 04-29-21
362 Tran Sonic Fan Player Banned 0.0% 18185 04-29-21

This page is using the New Data Table System. [FUTURE]

Game ID: 3 | Category ID: 10
Hits: 79,926 | Hits This Month: 23 | DB Calls: 21 | Mem Usage: 1.12 MB | Time: 0.04s | Printable

The Sonic Center v3.9
Copyright 2003-2011 by The Sonic Center Team.